createdAt,value
2018-09-12T00:00:02.062Z,20.27
2018-09-12T00:01:02.039Z,20.30
2018-09-12T00:02:02.020Z,20.33
2018-09-12T00:03:01.980Z,20.31
2018-09-12T00:04:01.965Z,20.28
2018-09-12T00:05:01.941Z,20.33
2018-09-12T00:06:01.915Z,20.27
2018-09-12T00:07:01.891Z,20.34
2018-09-12T00:08:01.867Z,20.35
2018-09-12T00:09:01.841Z,20.30
2018-09-12T00:10:01.819Z,20.28
2018-09-12T00:11:01.793Z,20.39
2018-09-12T00:12:01.768Z,20.33
2018-09-12T00:13:01.742Z,20.31
2018-09-12T00:14:01.719Z,20.30
2018-09-12T00:15:01.696Z,20.34
2018-09-12T00:16:01.671Z,20.31
2018-09-12T00:17:01.646Z,20.38
2018-09-12T00:18:01.622Z,20.35
2018-09-12T00:19:01.598Z,20.39
2018-09-12T00:20:02.497Z,20.35
2018-09-12T00:21:01.597Z,20.46
2018-09-12T00:22:01.525Z,20.34
2018-09-12T00:23:01.500Z,20.47
2018-09-12T00:24:01.475Z,20.46
2018-09-12T00:25:01.456Z,20.50
2018-09-12T00:26:01.429Z,20.49
2018-09-12T00:27:01.404Z,20.49
2018-09-12T00:28:01.379Z,20.46
2018-09-12T00:29:03.027Z,20.62
2018-09-12T00:30:01.329Z,20.46
2018-09-12T00:31:01.306Z,20.49
2018-09-12T00:32:01.283Z,20.61
2018-09-12T00:33:01.257Z,20.56
2018-09-12T00:34:01.233Z,20.58
2018-09-12T00:35:01.208Z,20.59
2018-09-12T00:36:01.188Z,20.64
2018-09-12T00:37:01.159Z,20.64
2018-09-12T00:38:01.135Z,20.69
2018-09-12T00:39:01.111Z,20.65
2018-09-12T00:40:01.089Z,20.68
2018-09-12T00:41:01.065Z,20.65
2018-09-12T00:42:01.041Z,20.68
2018-09-12T00:43:01.015Z,20.65
2018-09-12T00:44:00.991Z,20.64
2018-09-12T00:45:00.965Z,20.64
2018-09-12T00:46:00.943Z,20.68
2018-09-12T00:47:00.916Z,20.65
2018-09-12T00:48:00.894Z,20.66
2018-09-12T00:49:00.867Z,20.61
2018-09-12T00:50:00.845Z,20.64
2018-09-12T00:51:00.819Z,20.61
2018-09-12T00:52:00.797Z,20.65
2018-09-12T00:53:00.771Z,20.61
2018-09-12T00:54:00.747Z,20.65
2018-09-12T00:55:00.723Z,20.68
2018-09-12T00:56:00.699Z,20.65
2018-09-12T00:57:00.675Z,20.62
2018-09-12T00:58:00.652Z,20.66
2018-09-12T00:59:00.626Z,20.64
2018-09-12T01:00:00.602Z,20.65
2018-09-12T01:01:00.577Z,20.64
2018-09-12T01:02:00.556Z,20.69
2018-09-12T01:03:00.528Z,20.69
2018-09-12T01:04:00.506Z,20.61
2018-09-12T01:05:00.481Z,20.66
2018-09-12T01:06:00.457Z,20.65
2018-09-12T01:07:00.432Z,20.66
2018-09-12T01:08:00.408Z,20.65
2018-09-12T01:09:00.380Z,20.66
2018-09-12T01:10:00.361Z,20.64
2018-09-12T01:11:00.336Z,20.64
2018-09-12T01:12:00.347Z,20.66
2018-09-12T01:13:00.288Z,20.68
2018-09-12T01:14:00.265Z,20.65
2018-09-12T01:15:00.238Z,20.68
2018-09-12T01:16:00.217Z,20.64
2018-09-12T01:17:00.191Z,20.64
2018-09-12T01:18:00.166Z,20.71
2018-09-12T01:19:00.142Z,20.66
2018-09-12T01:20:00.121Z,20.62
2018-09-12T01:21:00.094Z,20.65
2018-09-12T01:22:00.075Z,20.65
2018-09-12T01:23:00.045Z,20.65
2018-09-12T01:24:00.023Z,20.65
2018-09-12T01:24:59.997Z,20.66
2018-09-12T01:25:59.973Z,20.68
2018-09-12T01:26:59.949Z,20.59
2018-09-12T01:27:59.925Z,20.68
2018-09-12T01:28:59.900Z,20.62
2018-09-12T01:29:59.877Z,20.65
2018-09-12T01:30:59.852Z,20.64
2018-09-12T01:32:00.545Z,20.62
2018-09-12T01:32:59.806Z,20.64
2018-09-12T01:33:59.780Z,20.65
2018-09-12T01:34:59.756Z,20.65
2018-09-12T01:35:59.731Z,20.62
2018-09-12T01:36:59.709Z,20.71
2018-09-12T01:37:59.685Z,20.61
2018-09-12T01:38:59.658Z,20.65
2018-09-12T01:39:59.635Z,20.65
2018-09-12T01:40:59.611Z,20.59
2018-09-12T01:41:59.589Z,20.65
2018-09-12T01:42:59.563Z,20.64
2018-09-12T01:43:59.539Z,20.65
2018-09-12T01:44:59.514Z,20.64
2018-09-12T01:45:59.491Z,20.61
2018-09-12T01:46:59.469Z,20.61
2018-09-12T01:47:59.441Z,20.62
2018-09-12T01:48:59.420Z,20.64
2018-09-12T01:49:59.395Z,20.62
2018-09-12T01:50:59.368Z,20.66
2018-09-12T01:52:00.018Z,20.68
2018-09-12T01:52:59.322Z,20.64
2018-09-12T01:53:59.298Z,20.71
2018-09-12T01:54:59.271Z,20.62
2018-09-12T01:55:59.249Z,20.65
2018-09-12T01:56:59.225Z,20.65
2018-09-12T01:57:59.201Z,20.61
2018-09-12T01:58:59.176Z,20.64
2018-09-12T01:59:59.152Z,20.68
2018-09-12T02:00:59.129Z,20.65
2018-09-12T02:01:59.105Z,20.65
2018-09-12T02:02:59.080Z,20.65
2018-09-12T02:03:59.059Z,20.71
2018-09-12T02:04:59.032Z,20.65
2018-09-12T02:05:59.006Z,20.61
2018-09-12T02:06:58.981Z,20.65
2018-09-12T02:07:58.959Z,20.66
2018-09-12T02:08:58.939Z,20.65
2018-09-12T02:09:58.911Z,20.68
2018-09-12T02:10:58.887Z,20.66
2018-09-12T02:11:58.864Z,20.64
2018-09-12T02:12:58.839Z,20.65
2018-09-12T02:13:58.813Z,20.66
2018-09-12T02:14:59.521Z,20.61
2018-09-12T02:15:58.769Z,20.58
2018-09-12T02:16:58.745Z,20.56
2018-09-12T02:17:58.717Z,20.56
2018-09-12T02:18:58.692Z,20.54
2018-09-12T02:19:58.670Z,20.47
2018-09-12T02:20:58.646Z,20.49
2018-09-12T02:21:59.522Z,20.47
2018-09-12T02:22:58.599Z,20.47
2018-09-12T02:23:58.574Z,20.50
2018-09-12T02:24:58.551Z,20.49
2018-09-12T02:25:58.523Z,20.50
2018-09-12T02:26:58.500Z,20.51
2018-09-12T02:27:58.476Z,20.42
2018-09-12T02:28:58.451Z,20.50
2018-09-12T02:29:58.427Z,20.47
2018-09-12T02:30:58.404Z,20.47
2018-09-12T02:31:58.378Z,20.47
2018-09-12T02:32:58.356Z,20.39
2018-09-12T02:33:58.332Z,20.35
2018-09-12T02:34:58.307Z,20.39
2018-09-12T02:35:58.282Z,20.47
2018-09-12T02:36:58.261Z,20.39
2018-09-12T02:37:59.027Z,20.46
2018-09-12T02:38:58.209Z,20.39
2018-09-12T02:39:58.185Z,20.39
2018-09-12T02:40:58.163Z,20.41
2018-09-12T02:41:58.139Z,20.31
2018-09-12T02:42:58.117Z,20.38
2018-09-12T02:43:58.090Z,20.38
2018-09-12T02:44:58.066Z,20.33
2018-09-12T02:45:58.042Z,20.31
2018-09-12T02:46:58.015Z,20.34
2018-09-12T02:47:57.992Z,20.35
2018-09-12T02:48:57.968Z,20.41
2018-09-12T02:49:57.947Z,20.38
2018-09-12T02:50:57.920Z,20.39
2018-09-12T02:51:57.894Z,20.35
2018-09-12T02:52:57.876Z,20.35
2018-09-12T02:53:57.847Z,20.38
2018-09-12T02:54:57.823Z,20.34
2018-09-12T02:55:57.850Z,20.34
2018-09-12T02:56:57.774Z,20.38
2018-09-12T02:57:57.750Z,20.34
2018-09-12T02:58:57.726Z,20.30
2018-09-12T02:59:57.701Z,20.25
2018-09-12T03:00:57.677Z,20.33
2018-09-12T03:01:57.652Z,20.30
2018-09-12T03:02:57.628Z,20.34
2018-09-12T03:03:57.604Z,20.34
2018-09-12T03:04:57.581Z,20.24
2018-09-12T03:05:57.556Z,20.34
2018-09-12T03:06:57.532Z,20.35
2018-09-12T03:07:57.529Z,20.42
2018-09-12T03:08:57.483Z,20.33
2018-09-12T03:09:57.458Z,20.35
2018-09-12T03:10:57.433Z,20.39
2018-09-12T03:11:57.408Z,20.34
2018-09-12T03:12:57.384Z,20.34
2018-09-12T03:13:57.362Z,20.34
2018-09-12T03:14:57.337Z,20.39
2018-09-12T03:15:57.312Z,20.34
2018-09-12T03:16:57.287Z,20.38
2018-09-12T03:17:57.265Z,20.38
2018-09-12T03:18:57.239Z,20.31
2018-09-12T03:19:57.218Z,20.41
2018-09-12T03:20:57.420Z,20.30
2018-09-12T03:21:57.167Z,20.24
2018-09-12T03:22:57.141Z,20.27
2018-09-12T03:23:57.117Z,20.30
2018-09-12T03:24:57.093Z,20.30
2018-09-12T03:25:57.067Z,20.30
2018-09-12T03:26:57.044Z,20.25
2018-09-12T03:27:57.018Z,20.24
2018-09-12T03:28:56.996Z,20.33
2018-09-12T03:29:56.970Z,20.28
2018-09-12T03:30:56.946Z,20.33
2018-09-12T03:31:56.921Z,20.28
2018-09-12T03:32:56.897Z,20.30
2018-09-12T03:33:56.873Z,20.34
2018-09-12T03:34:56.849Z,20.31
2018-09-12T03:35:56.824Z,20.31
2018-09-12T03:36:56.799Z,20.35
2018-09-12T03:37:56.777Z,20.34
2018-09-12T03:38:56.750Z,20.25
2018-09-12T03:39:56.727Z,20.28
2018-09-12T03:40:56.701Z,20.28
2018-09-12T03:41:56.677Z,20.34
2018-09-12T03:42:56.653Z,20.30
2018-09-12T03:43:56.629Z,20.28
2018-09-12T03:44:56.605Z,20.33
2018-09-12T03:45:56.582Z,20.30
2018-09-12T03:46:56.558Z,20.39
2018-09-12T03:47:56.566Z,20.34
2018-09-12T03:48:56.511Z,20.33
2018-09-12T03:49:57.042Z,20.24
2018-09-12T03:50:56.455Z,20.33
2018-09-12T03:51:56.434Z,20.30
2018-09-12T03:52:56.410Z,20.34
2018-09-12T03:53:56.386Z,20.30
2018-09-12T03:54:56.360Z,20.33
2018-09-12T03:55:56.339Z,20.28
2018-09-12T03:56:57.046Z,20.33
2018-09-12T03:57:56.288Z,20.27
2018-09-12T03:58:56.261Z,20.34
2018-09-12T03:59:56.238Z,20.30
2018-09-12T04:00:56.214Z,20.30
2018-09-12T04:01:56.191Z,20.31
2018-09-12T04:02:56.368Z,20.33
2018-09-12T04:03:56.143Z,20.33
2018-09-12T04:04:56.118Z,20.27
2018-09-12T04:05:56.093Z,20.33
2018-09-12T04:06:56.068Z,20.30
2018-09-12T04:07:56.046Z,20.27
2018-09-12T04:08:56.019Z,20.27
2018-09-12T04:09:55.996Z,20.28
2018-09-12T04:10:55.977Z,20.27
2018-09-12T04:11:55.947Z,20.27
2018-09-12T04:12:55.922Z,20.34
2018-09-12T04:13:55.898Z,20.28
2018-09-12T04:14:55.874Z,20.28
2018-09-12T04:15:55.881Z,20.33
2018-09-12T04:16:55.917Z,20.31
2018-09-12T04:17:55.804Z,20.28
2018-09-12T04:18:55.776Z,20.23
2018-09-12T04:19:55.771Z,20.35
2018-09-12T04:20:55.759Z,20.27
2018-09-12T04:21:55.706Z,20.33
2018-09-12T04:22:55.678Z,20.30
2018-09-12T04:23:55.654Z,20.30
2018-09-12T04:24:55.630Z,20.27
2018-09-12T04:25:56.550Z,20.27
2018-09-12T04:26:55.578Z,20.28
2018-09-12T04:27:55.556Z,20.28
2018-09-12T04:28:55.533Z,20.31
2018-09-12T04:29:55.507Z,20.23
2018-09-12T04:30:55.482Z,20.27
2018-09-12T04:31:55.459Z,20.18
2018-09-12T04:32:55.432Z,20.23
2018-09-12T04:33:55.411Z,20.25
2018-09-12T04:34:55.385Z,20.18
2018-09-12T04:35:55.361Z,20.13
2018-09-12T04:36:55.339Z,20.09
2018-09-12T04:37:55.318Z,20.23
2018-09-12T04:38:56.053Z,20.23
2018-09-12T04:39:55.263Z,20.13
2018-09-12T04:40:55.240Z,20.20
2018-09-12T04:41:55.215Z,20.20
2018-09-12T04:42:55.281Z,20.05
2018-09-12T04:43:55.168Z,20.13
2018-09-12T04:44:55.141Z,20.13
2018-09-12T04:45:55.119Z,20.05
2018-09-12T04:46:55.095Z,20.05
2018-09-12T04:47:55.069Z,20.03
2018-09-12T04:48:55.045Z,20.06
2018-09-12T04:49:55.020Z,20.02
2018-09-12T04:50:54.996Z,20.06
2018-09-12T04:51:54.970Z,20.05
2018-09-12T04:52:54.949Z,20.09
2018-09-12T04:53:54.938Z,20.05
2018-09-12T04:54:54.900Z,20.00
2018-09-12T04:55:54.872Z,20.05
2018-09-12T04:56:54.852Z,20.03
2018-09-12T04:57:54.824Z,20.05
2018-09-12T04:58:54.798Z,20.05
2018-09-12T04:59:54.777Z,20.00
2018-09-12T05:01:02.173Z,20.06
2018-09-12T05:02:48.376Z,20.02
2018-09-12T05:03:49.162Z,20.02
2018-09-12T05:05:41.169Z,20.05
2018-09-12T05:06:41.110Z,19.90
2018-09-12T05:08:34.219Z,19.94
2018-09-12T05:09:34.189Z,20.02
2018-09-12T05:11:27.521Z,19.93
2018-09-12T05:12:27.482Z,19.90
2018-09-12T05:14:20.288Z,19.88
2018-09-12T05:15:20.259Z,20.03
2018-09-12T05:16:20.234Z,19.93
2018-09-12T05:17:20.212Z,19.98
2018-09-12T05:18:20.187Z,19.95
2018-09-12T05:19:20.161Z,19.95
2018-09-12T05:20:20.138Z,19.95
2018-09-12T05:21:20.113Z,19.93
2018-09-12T05:22:20.089Z,19.94
2018-09-12T05:23:20.062Z,19.91
2018-09-12T05:24:20.040Z,19.94
2018-09-12T05:25:20.014Z,19.90
2018-09-12T05:26:19.991Z,19.91
2018-09-12T05:27:19.967Z,19.93
2018-09-12T05:28:19.997Z,19.91
2018-09-12T05:29:19.916Z,19.97
2018-09-12T05:30:19.892Z,19.93
2018-09-12T05:31:19.870Z,19.93
2018-09-12T05:32:19.845Z,20.00
2018-09-12T05:33:19.909Z,20.13
2018-09-12T05:34:19.800Z,20.27
2018-09-12T05:35:19.771Z,20.50
2018-09-12T05:36:19.770Z,20.42
2018-09-12T05:37:19.725Z,20.49
2018-09-12T05:38:19.699Z,20.66
2018-09-12T05:39:19.679Z,20.79
2018-09-12T05:40:19.650Z,20.71
2018-09-12T05:41:19.627Z,20.71
2018-09-12T05:42:19.597Z,20.79
2018-09-12T05:43:19.578Z,20.86
2018-09-12T05:44:19.552Z,20.84
2018-09-12T05:45:19.528Z,20.84
2018-09-12T05:46:19.507Z,20.80
2018-09-12T05:47:19.480Z,20.81
2018-09-12T05:48:19.454Z,20.84
2018-09-12T05:49:19.431Z,20.83
2018-09-12T05:50:19.497Z,20.81
2018-09-12T05:51:19.383Z,20.65
2018-09-12T05:52:19.360Z,20.64
2018-09-12T05:53:19.334Z,20.53
2018-09-12T05:54:19.320Z,20.38
2018-09-12T05:55:19.292Z,20.15
2018-09-12T05:56:19.269Z,20.05
2018-09-12T05:57:19.240Z,19.90
2018-09-12T05:58:19.214Z,19.88
2018-09-12T05:59:19.189Z,19.80
2018-09-12T06:00:19.169Z,19.87
2018-09-12T06:01:19.144Z,19.75
2018-09-12T06:02:19.118Z,19.48
2018-09-12T06:03:19.093Z,19.43
2018-09-12T06:04:19.068Z,19.33
2018-09-12T06:05:19.046Z,19.38
2018-09-12T06:06:19.052Z,19.39
2018-09-12T06:07:19.078Z,19.36
2018-09-12T06:08:18.973Z,19.46
2018-09-12T06:09:18.948Z,19.39
2018-09-12T06:10:18.923Z,19.42
2018-09-12T06:11:18.905Z,19.47
2018-09-12T06:12:18.874Z,19.43
2018-09-12T06:13:18.850Z,19.32
2018-09-12T06:14:18.825Z,19.11
2018-09-12T06:15:18.800Z,19.17
2018-09-12T06:16:18.777Z,18.97
2018-09-12T06:17:18.762Z,19.06
2018-09-12T06:18:18.729Z,19.20
2018-09-12T06:19:18.701Z,19.25
2018-09-12T06:20:18.677Z,19.32
2018-09-12T06:21:18.652Z,19.23
2018-09-12T06:22:18.633Z,19.14
2018-09-12T06:23:18.604Z,19.01
2018-09-12T06:24:18.581Z,19.08
2018-09-12T06:25:18.554Z,19.20
2018-09-12T06:26:18.533Z,19.18
2018-09-12T06:27:18.506Z,19.21
2018-09-12T06:28:18.480Z,19.21
2018-09-12T06:29:18.457Z,19.11
2018-09-12T06:30:18.431Z,19.08
2018-09-12T06:31:18.408Z,19.10
2018-09-12T06:32:18.380Z,19.01
2018-09-12T06:33:18.356Z,18.97
2018-09-12T06:34:18.331Z,18.86
2018-09-12T06:35:18.307Z,18.90
2018-09-12T06:36:18.282Z,18.98
2018-09-12T06:37:18.258Z,18.95
2018-09-12T06:38:18.256Z,18.91
2018-09-12T06:39:18.215Z,18.98
2018-09-12T06:40:18.184Z,18.92
2018-09-12T06:41:18.157Z,19.01
2018-09-12T06:42:18.138Z,19.23
2018-09-12T06:43:18.112Z,19.39
2018-09-12T06:44:18.086Z,19.38
2018-09-12T06:45:18.060Z,19.36
2018-09-12T06:46:18.036Z,19.42
2018-09-12T06:47:18.007Z,19.29
2018-09-12T06:48:18.084Z,19.14
2018-09-12T06:49:17.960Z,18.98
2018-09-12T06:50:17.937Z,19.01
2018-09-12T06:51:17.907Z,18.94
2018-09-12T06:52:17.886Z,19.11
2018-09-12T06:53:17.862Z,18.97
2018-09-12T06:54:17.839Z,18.95
2018-09-12T06:55:17.811Z,18.98
2018-09-12T06:56:17.787Z,18.92
2018-09-12T06:57:17.761Z,18.84
2018-09-12T06:58:17.741Z,18.86
2018-09-12T06:59:17.709Z,18.92
2018-09-12T07:00:18.405Z,18.83
2018-09-12T07:01:17.663Z,18.91
2018-09-12T07:02:17.637Z,18.87
2018-09-12T07:03:17.613Z,18.84
2018-09-12T07:04:17.585Z,18.70
2018-09-12T07:05:17.562Z,18.73
2018-09-12T07:06:17.544Z,18.65
2018-09-12T07:07:17.511Z,18.73
2018-09-12T07:08:17.488Z,18.67
2018-09-12T07:09:17.462Z,18.62
2018-09-12T07:10:17.437Z,18.47
2018-09-12T07:11:17.415Z,18.49
2018-09-12T07:12:17.385Z,18.29
2018-09-12T07:13:17.361Z,18.29
2018-09-12T07:14:17.409Z,18.27
2018-09-12T07:15:17.310Z,18.25
2018-09-12T07:16:17.288Z,18.18
2018-09-12T07:17:17.260Z,18.15
2018-09-12T07:18:17.236Z,18.13
2018-09-12T07:19:17.211Z,17.99
2018-09-12T07:20:17.187Z,17.89
2018-09-12T07:21:17.161Z,18.04
2018-09-12T07:22:17.134Z,18.15
2018-09-12T07:23:17.109Z,18.31
2018-09-12T07:24:17.103Z,18.47
2018-09-12T07:25:17.058Z,18.58
2018-09-12T07:26:17.037Z,18.68
2018-09-12T07:27:17.007Z,18.68
2018-09-12T07:28:16.983Z,18.49
2018-09-12T07:29:16.960Z,18.46
2018-09-12T07:30:16.935Z,18.44
2018-09-12T07:31:16.912Z,18.67
2018-09-12T07:32:16.884Z,18.80
2018-09-12T07:33:16.858Z,18.94
2018-09-12T07:34:16.835Z,18.77
2018-09-12T07:35:16.810Z,18.50
2018-09-12T07:36:16.786Z,18.49
2018-09-12T07:37:16.761Z,18.46
2018-09-12T07:38:16.739Z,18.31
2018-09-12T07:39:16.714Z,18.07
2018-09-12T07:40:16.688Z,17.99
2018-09-12T07:41:16.667Z,17.91
2018-09-12T07:42:16.642Z,17.92
2018-09-12T07:43:16.612Z,17.82
2018-09-12T07:44:16.592Z,17.94
2018-09-12T07:45:16.569Z,17.95
2018-09-12T07:46:16.543Z,17.85
2018-09-12T07:47:16.515Z,17.81
2018-09-12T07:48:16.490Z,17.84
2018-09-12T07:49:16.470Z,17.84
2018-09-12T07:50:16.448Z,17.69
2018-09-12T07:51:16.422Z,17.69
2018-09-12T07:52:16.395Z,17.54
2018-09-12T07:53:16.366Z,17.55
2018-09-12T07:54:16.353Z,17.53
2018-09-12T07:55:16.386Z,17.67
2018-09-12T07:56:16.379Z,17.66
2018-09-12T07:57:16.267Z,17.51
2018-09-12T07:58:16.240Z,17.59
2018-09-12T07:59:16.220Z,17.35
2018-09-12T08:00:16.274Z,17.26
2018-09-12T08:01:16.168Z,17.28
2018-09-12T08:02:16.143Z,17.32
2018-09-12T08:03:16.113Z,17.22
2018-09-12T08:04:16.091Z,17.26
2018-09-12T08:05:16.145Z,17.14
2018-09-12T08:06:16.036Z,17.14
2018-09-12T08:07:16.009Z,17.08
2018-09-12T08:08:15.981Z,17.06
2018-09-12T08:09:15.958Z,16.95
2018-09-12T08:10:15.934Z,16.89
2018-09-12T08:11:15.913Z,17.00
2018-09-12T08:12:15.895Z,17.04
2018-09-12T08:13:15.855Z,16.90
2018-09-12T08:14:15.827Z,16.85
2018-09-12T08:15:15.801Z,16.88
2018-09-12T08:16:15.773Z,16.81
2018-09-12T08:17:15.750Z,16.68
2018-09-12T08:18:15.722Z,16.58
2018-09-12T08:19:15.696Z,16.56
2018-09-12T08:20:15.670Z,16.58
2018-09-12T08:21:15.648Z,16.62
2018-09-12T08:22:15.618Z,16.58
2018-09-12T08:23:15.591Z,16.55
2018-09-12T08:24:15.564Z,16.49
2018-09-12T08:25:15.537Z,16.60
2018-09-12T08:26:15.568Z,16.55
2018-09-12T08:27:15.484Z,16.45
2018-09-12T08:28:15.461Z,16.42
2018-09-12T08:29:15.431Z,16.38
2018-09-12T08:30:15.405Z,16.34
2018-09-12T08:31:15.378Z,16.31
2018-09-12T08:32:15.351Z,16.31
2018-09-12T08:33:15.337Z,16.26
2018-09-12T08:34:15.296Z,16.27
2018-09-12T08:35:15.272Z,16.44
2018-09-12T08:36:15.268Z,16.48
2018-09-12T08:37:15.225Z,16.38
2018-09-12T08:38:15.193Z,16.38
2018-09-12T08:39:15.166Z,16.34
2018-09-12T08:40:15.139Z,16.30
2018-09-12T08:41:15.110Z,16.27
2018-09-12T08:42:15.143Z,16.16
2018-09-12T08:43:15.056Z,16.27
2018-09-12T08:44:16.924Z,16.31
2018-09-12T08:45:15.005Z,16.31
2018-09-12T08:46:14.982Z,16.16
2018-09-12T08:47:14.951Z,16.20
2018-09-12T08:48:14.925Z,16.22
2018-09-12T08:49:14.897Z,16.18
2018-09-12T08:50:15.424Z,16.27
2018-09-12T08:51:14.841Z,16.37
2018-09-12T08:52:14.817Z,16.41
2018-09-12T08:53:14.790Z,16.56
2018-09-12T08:54:14.764Z,16.58
2018-09-12T08:55:14.737Z,16.63
2018-09-12T08:56:14.714Z,16.63
2018-09-12T08:57:14.683Z,16.71
2018-09-12T08:58:14.656Z,16.88
2018-09-12T08:59:14.632Z,16.93
2018-09-12T09:00:14.642Z,17.13
2018-09-12T09:01:14.660Z,17.04
2018-09-12T09:02:14.555Z,17.11
2018-09-12T09:03:14.525Z,17.29
2018-09-12T09:04:14.500Z,17.35
2018-09-12T09:05:14.473Z,17.50
2018-09-12T09:06:14.447Z,17.40
2018-09-12T09:07:14.421Z,17.50
2018-09-12T09:08:14.395Z,17.55
2018-09-12T09:09:14.375Z,17.57
2018-09-12T09:10:14.346Z,17.62
2018-09-12T09:11:14.318Z,17.78
2018-09-12T09:12:14.294Z,17.87
2018-09-12T09:13:14.269Z,17.95
2018-09-12T09:14:14.244Z,17.82
2018-09-12T09:15:14.217Z,17.79
2018-09-12T09:16:14.193Z,17.78
2018-09-12T09:17:14.192Z,17.78
2018-09-12T09:18:14.147Z,18.00
2018-09-12T09:19:14.120Z,17.94
2018-09-12T09:20:14.094Z,17.94
2018-09-12T09:21:14.064Z,17.85
2018-09-12T09:22:14.046Z,17.84
2018-09-12T09:23:14.018Z,17.99
2018-09-12T09:24:13.993Z,18.12
2018-09-12T09:25:13.970Z,18.09
2018-09-12T09:26:13.979Z,18.03
2018-09-12T09:27:13.918Z,18.04
2018-09-12T09:28:13.896Z,17.95
2018-09-12T09:29:13.886Z,17.82
2018-09-12T09:30:13.847Z,17.85
2018-09-12T09:31:13.826Z,17.82
2018-09-12T09:32:13.797Z,17.69
2018-09-12T09:33:13.771Z,17.48
2018-09-12T09:34:13.752Z,17.51
2018-09-12T09:35:13.751Z,17.53
2018-09-12T09:36:13.698Z,17.50
2018-09-12T09:37:13.676Z,17.53
2018-09-12T09:38:13.650Z,17.29
2018-09-12T09:39:13.626Z,17.38
2018-09-12T09:40:13.601Z,17.40
2018-09-12T09:41:13.572Z,17.50
2018-09-12T09:42:13.547Z,17.48
2018-09-12T09:43:13.523Z,17.46
2018-09-12T09:44:13.557Z,17.41
2018-09-12T09:45:13.472Z,17.38
2018-09-12T09:46:13.454Z,17.41
2018-09-12T09:47:13.421Z,17.55
2018-09-12T09:48:13.492Z,17.70
2018-09-12T09:49:13.371Z,17.67
2018-09-12T09:50:13.346Z,17.76
2018-09-12T09:51:13.321Z,17.46
2018-09-12T09:52:13.296Z,17.30
2018-09-12T09:53:13.269Z,17.40
2018-09-12T09:54:13.245Z,17.51
2018-09-12T09:55:13.263Z,17.55
2018-09-12T09:56:13.194Z,17.54
2018-09-12T09:57:14.937Z,17.57
2018-09-12T09:58:13.144Z,17.50
2018-09-12T09:59:13.115Z,17.51
2018-09-12T10:00:13.142Z,17.46
2018-09-12T10:01:13.071Z,17.36
2018-09-12T10:02:13.038Z,17.25
2018-09-12T10:03:13.013Z,17.28
2018-09-12T10:04:12.988Z,17.43
2018-09-12T10:05:12.960Z,17.43
2018-09-12T10:06:12.941Z,17.29
2018-09-12T10:07:12.909Z,17.28
2018-09-12T10:08:12.883Z,17.35
2018-09-12T10:09:12.857Z,17.36
2018-09-12T10:10:12.832Z,17.40
2018-09-12T10:11:12.806Z,17.41
2018-09-12T10:12:12.780Z,17.43
2018-09-12T10:13:12.754Z,17.41
2018-09-12T10:14:12.729Z,17.43
2018-09-12T10:15:12.706Z,17.36
2018-09-12T10:16:12.675Z,17.40
2018-09-12T10:17:12.651Z,17.40
2018-09-12T10:18:12.625Z,17.40
2018-09-12T10:19:12.602Z,17.30
2018-09-12T10:20:12.574Z,17.28
2018-09-12T10:21:12.547Z,17.29
2018-09-12T10:22:12.521Z,17.38
2018-09-12T10:23:12.492Z,17.32
2018-09-12T10:24:12.508Z,17.26
2018-09-12T10:25:12.447Z,17.30
2018-09-12T10:26:12.415Z,17.32
2018-09-12T10:27:12.392Z,17.25
2018-09-12T10:28:12.365Z,17.14
2018-09-12T10:29:12.340Z,17.30
2018-09-12T10:30:12.315Z,17.23
2018-09-12T10:31:12.289Z,17.25
2018-09-12T10:32:12.265Z,17.28
2018-09-12T10:33:12.241Z,17.20
2018-09-12T10:34:12.214Z,17.15
2018-09-12T10:35:12.189Z,17.20
2018-09-12T10:36:12.158Z,17.20
2018-09-12T10:37:12.133Z,17.28
2018-09-12T10:38:12.109Z,17.44
2018-09-12T10:39:12.083Z,17.30
2018-09-12T10:40:12.053Z,17.25
2018-09-12T10:41:12.028Z,17.35
2018-09-12T10:42:12.004Z,17.35
2018-09-12T10:43:11.977Z,17.40
2018-09-12T10:44:11.947Z,17.50
2018-09-12T10:45:11.924Z,17.23
2018-09-12T10:46:11.905Z,17.13
2018-09-12T10:47:11.868Z,17.18
2018-09-12T10:48:11.846Z,17.20
2018-09-12T10:49:11.828Z,17.00
2018-09-12T10:50:11.798Z,16.86
2018-09-12T10:51:12.395Z,16.88
2018-09-12T10:52:11.750Z,16.78
2018-09-12T10:53:11.716Z,16.85
2018-09-12T10:54:11.692Z,16.95
2018-09-12T10:55:11.668Z,17.14
2018-09-12T10:56:11.640Z,17.32
2018-09-12T10:57:11.613Z,17.30
2018-09-12T10:58:11.590Z,17.48
2018-09-12T10:59:11.618Z,17.50
2018-09-12T11:00:11.538Z,17.44
2018-09-12T11:01:11.514Z,17.32
2018-09-12T11:02:11.487Z,17.22
2018-09-12T11:03:11.460Z,17.25
2018-09-12T11:04:11.485Z,17.28
2018-09-12T11:05:11.412Z,17.11
2018-09-12T11:06:11.385Z,17.23
2018-09-12T11:07:11.357Z,17.29
2018-09-12T11:08:11.332Z,17.41
2018-09-12T11:09:11.307Z,17.32
2018-09-12T11:10:11.281Z,17.26
2018-09-12T11:11:11.257Z,17.26
2018-09-12T11:12:11.232Z,17.23
2018-09-12T11:13:11.206Z,17.44
2018-09-12T11:14:11.180Z,17.44
2018-09-12T11:15:11.162Z,17.35
2018-09-12T11:16:11.131Z,17.44
2018-09-12T11:17:11.110Z,17.32
2018-09-12T11:18:11.080Z,17.22
2018-09-12T11:19:11.054Z,17.18
2018-09-12T11:20:11.031Z,17.15
2018-09-12T11:21:11.003Z,17.30
2018-09-12T11:22:10.980Z,17.40
2018-09-12T11:23:10.955Z,17.47
2018-09-12T11:24:10.930Z,17.28
2018-09-12T11:25:10.907Z,17.11
2018-09-12T11:26:10.882Z,17.00
2018-09-12T11:27:10.854Z,17.17
2018-09-12T11:28:10.828Z,17.29
2018-09-12T11:29:10.808Z,17.38
2018-09-12T11:30:10.781Z,17.30
2018-09-12T11:31:10.754Z,17.11
2018-09-12T11:32:10.728Z,17.07
2018-09-12T11:33:10.706Z,16.93
2018-09-12T11:34:10.688Z,16.92
2018-09-12T11:35:10.657Z,16.88
2018-09-12T11:36:10.629Z,16.80
2018-09-12T11:37:10.604Z,16.75
2018-09-12T11:38:10.578Z,16.62
2018-09-12T11:39:10.551Z,16.62
2018-09-12T11:40:10.552Z,16.59
2018-09-12T11:41:10.500Z,16.74
2018-09-12T11:42:10.475Z,16.73
2018-09-12T11:43:10.451Z,16.98
2018-09-12T11:44:10.423Z,16.98
2018-09-12T11:45:10.400Z,16.80
2018-09-12T11:46:10.373Z,16.78
2018-09-12T11:47:10.349Z,16.62
2018-09-12T11:48:10.321Z,16.71
2018-09-12T11:49:10.327Z,16.81
2018-09-12T11:50:10.270Z,16.88
2018-09-12T11:51:10.245Z,16.93
2018-09-12T11:52:10.219Z,17.06
2018-09-12T11:53:10.191Z,17.00
2018-09-12T11:54:10.168Z,17.07
2018-09-12T11:55:10.142Z,17.17
2018-09-12T11:56:10.115Z,17.26
2018-09-12T11:57:10.090Z,17.35
2018-09-12T11:58:10.066Z,17.41
2018-09-12T11:59:10.038Z,17.40
2018-09-12T12:00:10.013Z,17.20
2018-09-12T12:01:09.984Z,17.28
2018-09-12T12:02:10.003Z,17.18
2018-09-12T12:03:09.936Z,17.33
2018-09-12T12:04:09.910Z,17.43
2018-09-12T12:05:09.885Z,17.40
2018-09-12T12:06:09.928Z,17.35
2018-09-12T12:07:09.834Z,17.44
2018-09-12T12:08:09.809Z,17.50
2018-09-12T12:09:09.781Z,17.40
2018-09-12T12:10:09.756Z,17.46
2018-09-12T12:11:09.775Z,17.29
2018-09-12T12:12:09.707Z,17.29
2018-09-12T12:13:09.683Z,17.06
2018-09-12T12:14:09.654Z,16.99
2018-09-12T12:15:09.666Z,17.07
2018-09-12T12:16:09.600Z,17.13
2018-09-12T12:17:09.579Z,17.29
2018-09-12T12:18:09.552Z,17.29
2018-09-12T12:19:09.527Z,17.23
2018-09-12T12:20:09.504Z,17.25
2018-09-12T12:21:09.475Z,17.29
2018-09-12T12:22:09.451Z,17.43
2018-09-12T12:23:09.491Z,17.47
2018-09-12T12:24:09.397Z,17.53
2018-09-12T12:25:09.375Z,17.57
2018-09-12T12:26:09.352Z,17.48
2018-09-12T12:27:09.322Z,17.50
2018-09-12T12:28:09.295Z,17.32
2018-09-12T12:29:09.272Z,17.33
2018-09-12T12:30:09.247Z,17.55
2018-09-12T12:31:09.307Z,17.70
2018-09-12T12:32:09.216Z,17.81
2018-09-12T12:33:09.166Z,17.78
2018-09-12T12:34:09.142Z,17.71
2018-09-12T12:35:09.163Z,17.59
2018-09-12T12:36:09.094Z,17.47
2018-09-12T12:37:09.067Z,17.33
2018-09-12T12:38:09.040Z,17.25
2018-09-12T12:39:09.014Z,17.38
2018-09-12T12:40:08.992Z,17.30
2018-09-12T12:41:08.996Z,17.28
2018-09-12T12:42:08.940Z,17.46
2018-09-12T12:43:08.911Z,17.47
2018-09-12T12:44:08.892Z,17.41
2018-09-12T12:45:08.862Z,17.46
2018-09-12T12:46:08.837Z,17.35
2018-09-12T12:47:08.808Z,17.44
2018-09-12T12:48:08.788Z,17.38
2018-09-12T12:49:09.480Z,17.17
2018-09-12T12:50:08.734Z,17.11
2018-09-12T12:51:08.709Z,17.06
2018-09-12T12:52:08.682Z,17.40
2018-09-12T12:53:08.655Z,17.41
2018-09-12T12:54:08.630Z,17.35
2018-09-12T12:55:08.604Z,17.29
2018-09-12T12:56:08.577Z,17.11